Time;durP1;ratioP1;P1;durP2;ratioP2;P2;SDS_P1;SDS_P2;PMS_P1;PMS_P2;Temp;Humidity;BMP_temperature;BMP_pressure;BME280_temperature;BME280_humidity;BME280_pressure;Samples;Min_cycle;Max_cycle;Signal;HPM_P1;HPM_P2
2023/09/20 04:07:05;;;;;;;;;30.33;26.67;;;;;;;;629465;39;10051490;-58
2023/09/20 04:13:08;;;;;;;;;29.00;26.00;;;;;;;;6490699;31;9981;-59
2023/09/20 04:19:10;;;;;;;;;24.67;22.00;;;;;;;;6492447;39;8931;-56
2023/09/20 04:25:13;;;;;;;;;26.00;25.00;;;;;;;;6491562;39;8888;-57
2023/09/20 04:31:19;;;;;;;;;24.00;23.00;;;;;;;;6491091;39;8916;-58
2023/09/20 04:37:25;;;;;;;;;24.00;21.00;;;;;;;;6490390;39;8989;-56
2023/09/20 04:43:28;;;;;;;;;28.67;28.67;;;;;;;;6492843;39;8941;-58
2023/09/20 04:49:30;;;;;;;;;29.00;28.33;;;;;;;;6493300;39;9586;-59
2023/09/20 04:55:34;;;;;;;;;29.67;25.67;;;;;;;;6491133;46;9060;-57
2023/09/20 05:01:37;;;;;;;;;30.33;28.00;;;;;;;;6491202;46;8973;-59
2023/09/20 05:07:43;;;;;;;;;27.33;23.33;;;;;;;;6492480;39;8858;-59
2023/09/20 05:13:46;;;;;;;;;26.67;25.00;;;;;;;;6491281;46;8922;-58
2023/09/20 05:19:50;;;;;;;;;27.00;23.67;;;;;;;;6491392;46;8881;-57
2023/09/20 05:25:53;;;;;;;;;26.33;23.67;;;;;;;;6491526;39;8889;-60
2023/09/20 05:31:56;;;;;;;;;21.00;21.00;;;;;;;;6491678;46;8881;-60
2023/09/20 05:37:59;;;;;;;;;27.67;25.00;;;;;;;;6491781;46;8837;-60
2023/09/20 05:44:01;;;;;;;;;27.33;27.33;;;;;;;;6490466;39;8927;-59
2023/09/20 05:50:04;;;;;;;;;24.67;24.00;;;;;;;;6491239;31;9070;-59
2023/09/20 05:56:12;;;;;;;;;23.33;21.67;;;;;;;;6492129;39;9485;-58
2023/09/20 06:02:15;;;;;;;;;25.00;24.67;;;;;;;;6491741;39;8948;-60
2023/09/20 06:08:17;;;;;;;;;29.00;27.67;;;;;;;;6491457;39;8907;-59
2023/09/20 06:14:24;;;;;;;;;29.33;28.00;;;;;;;;6491038;39;8908;-58
2023/09/20 06:20:27;;;;;;;;;27.00;25.67;;;;;;;;6491283;46;8956;-60
2023/09/20 06:26:31;;;;;;;;;25.33;21.67;;;;;;;;6491846;46;8872;-59
2023/09/20 06:32:34;;;;;;;;;35.00;33.33;;;;;;;;6489202;39;8922;-58
2023/09/20 06:38:36;;;;;;;;;28.67;28.67;;;;;;;;6489771;39;8931;-59
2023/09/20 06:44:39;;;;;;;;;21.00;21.00;;;;;;;;6474156;31;8886;-60
2023/09/20 06:50:45;;;;;;;;;31.00;26.00;;;;;;;;6488143;31;9680;-60
2023/09/20 06:56:47;;;;;;;;;33.33;31.00;;;;;;;;6488689;39;8955;-59
2023/09/20 07:02:51;;;;;;;;;33.67;29.67;;;;;;;;6489104;39;8997;-57
2023/09/20 07:08:54;;;;;;;;;27.33;26.00;;;;;;;;6491174;31;9000;-58
2023/09/20 07:14:56;;;;;;;;;27.33;23.67;;;;;;;;6490440;39;9358;-61
2023/09/20 07:20:59;;;;;;;;;26.00;24.67;;;;;;;;6486420;31;8987;-61
2023/09/20 07:27:03;;;;;;;;;24.67;23.00;;;;;;;;6491022;47;8969;-61
2023/09/20 07:33:11;;;;;;;;;21.33;20.67;;;;;;;;6487994;39;8934;-63
2023/09/20 07:39:20;;;;;;;;;25.33;24.33;;;;;;;;6488382;39;8890;-67
2023/09/20 07:45:24;;;;;;;;;37.67;32.33;;;;;;;;6487943;39;8929;-63
2023/09/20 07:51:29;;;;;;;;;23.00;23.00;;;;;;;;6487904;47;8922;-63
2023/09/20 07:57:33;;;;;;;;;30.67;29.33;;;;;;;;6488986;39;8967;-62
2023/09/20 08:03:38;;;;;;;;;24.25;23.25;;;;;;;;6487485;39;8982;-65
2023/09/20 08:09:42;;;;;;;;;25.67;22.67;;;;;;;;6488786;46;8922;-63
2023/09/20 08:15:45;;;;;;;;;23.00;23.00;;;;;;;;6490902;46;9135;-63
2023/09/20 08:21:48;;;;;;;;;35.00;32.67;;;;;;;;6491511;31;8916;-62
2023/09/20 08:59:57;;;;;;;;;24.00;22.00;;;;;;;;6487847;43;9519;-64
2023/09/20 09:06:02;;;;;;;;;19.00;19.00;;;;;;;;6488376;39;8912;-63
2023/09/20 09:12:04;;;;;;;;;27.33;26.00;;;;;;;;6487785;46;8922;-64
2023/09/20 09:18:15;;;;;;;;;47.67;39.00;;;;;;;;6488320;46;8942;-62
2023/09/20 09:24:23;;;;;;;;;19.00;18.50;;;;;;;;6489163;31;8906;-64
2023/09/20 09:30:25;;;;;;;;;29.00;28.67;;;;;;;;6486799;39;8950;-62
2023/09/20 09:36:30;;;;;;;;;21.75;21.75;;;;;;;;6486225;39;8921;-64
2023/09/20 09:42:33;;;;;;;;;42.00;35.67;;;;;;;;6488513;39;8894;-63
2023/09/20 09:48:39;;;;;;;;;22.75;19.00;;;;;;;;6487613;39;9098;-63
2023/09/20 09:54:44;;;;;;;;;24.75;24.25;;;;;;;;6486590;39;9515;-63
2023/09/20 10:00:51;;;;;;;;;28.25;27.25;;;;;;;;6485506;39;8951;-65
2023/09/20 10:07:15;;;;;;;;;28.25;25.50;;;;;;;;6487755;39;8951;-64
2023/09/20 10:13:18;;;;;;;;;21.25;20.25;;;;;;;;6485442;39;8944;-63
2023/09/20 10:19:23;;;;;;;;;28.25;26.25;;;;;;;;6486461;39;8916;-63
2023/09/20 10:25:36;;;;;;;;;36.25;31.75;;;;;;;;6486608;46;8908;-63
2023/09/20 10:31:39;;;;;;;;;15.75;14.75;;;;;;;;6485003;39;8914;-64
2023/09/20 10:38:04;;;;;;;;;25.50;25.50;;;;;;;;6488197;39;8939;-63
2023/09/20 10:44:07;;;;;;;;;34.00;30.25;;;;;;;;6449564;36;5001222;-62
2023/09/20 10:50:11;;;;;;;;;15.75;14.75;;;;;;;;6488375;39;8927;-61
2023/09/20 10:56:54;;;;;;;;;26.00;24.75;;;;;;;;6488445;39;9087;-62
2023/09/20 11:02:57;;;;;;;;;23.00;19.75;;;;;;;;6481180;46;8963;-65
2023/09/20 11:09:00;;;;;;;;;24.25;19.75;;;;;;;;6485241;39;9035;-63
2023/09/20 11:15:05;;;;;;;;;34.50;31.50;;;;;;;;6485568;39;8927;-65
2023/09/20 11:21:09;;;;;;;;;27.75;25.00;;;;;;;;6487335;39;8957;-65
2023/09/20 11:27:13;;;;;;;;;28.50;27.00;;;;;;;;6486166;47;8939;-65
2023/09/20 11:33:27;;;;;;;;;23.50;21.25;;;;;;;;6485612;31;9065;-63
2023/09/20 11:39:30;;;;;;;;;36.75;31.25;;;;;;;;6487516;39;9014;-63
2023/09/20 11:45:42;;;;;;;;;27.00;25.75;;;;;;;;6488275;46;8921;-64
2023/09/20 11:52:03;;;;;;;;;24.50;24.50;;;;;;;;6489207;39;8931;-64
2023/09/20 11:58:07;;;;;;;;;20.00;19.75;;;;;;;;6487958;46;8953;-64
2023/09/20 12:04:09;;;;;;;;;20.50;19.75;;;;;;;;6487575;46;8959;-64
2023/09/20 12:10:12;;;;;;;;;17.75;16.25;;;;;;;;6488161;39;8987;-64
2023/09/20 12:16:18;;;;;;;;;20.75;18.75;;;;;;;;6488510;31;9041;-65
2023/09/20 12:22:20;;;;;;;;;18.75;18.75;;;;;;;;6488869;31;8854;-64
2023/09/20 12:28:23;;;;;;;;;16.00;15.25;;;;;;;;6487885;31;8927;-62
2023/09/20 12:34:27;;;;;;;;;16.00;15.50;;;;;;;;6487689;39;9065;-65
2023/09/20 12:40:29;;;;;;;;;25.25;21.75;;;;;;;;6487984;31;8961;-63
2023/09/20 12:46:31;;;;;;;;;18.50;18.00;;;;;;;;6487504;31;8921;-63
2023/09/20 12:52:34;;;;;;;;;19.00;17.50;;;;;;;;6486973;39;8939;-63
2023/09/20 12:58:36;;;;;;;;;23.75;19.50;;;;;;;;6488780;39;9011;-63
2023/09/20 13:04:41;;;;;;;;;18.50;16.25;;;;;;;;6486981;46;8872;-66
2023/09/20 13:10:49;;;;;;;;;17.25;15.25;;;;;;;;6487722;39;8933;-65
2023/09/20 13:16:51;;;;;;;;;14.25;14.00;;;;;;;;6487018;39;9066;-63
2023/09/20 13:22:56;;;;;;;;;22.50;19.25;;;;;;;;6472891;46;8996;-64
2023/09/20 13:29:00;;;;;;;;;12.75;12.75;;;;;;;;6489397;39;9534;-63
2023/09/20 13:35:03;;;;;;;;;15.75;14.00;;;;;;;;6488067;39;8969;-63
2023/09/20 13:41:06;;;;;;;;;14.75;14.75;;;;;;;;6487957;31;8934;-63
2023/09/20 13:47:08;;;;;;;;;13.00;12.00;;;;;;;;6487800;39;8915;-63
2023/09/20 13:53:27;;;;;;;;;13.25;13.25;;;;;;;;6488130;31;9054;-63
2023/09/20 13:59:36;;;;;;;;;12.00;12.00;;;;;;;;6488434;46;8945;-61
2023/09/20 14:05:39;;;;;;;;;13.50;11.50;;;;;;;;6486986;39;8885;-62
2023/09/20 14:11:41;;;;;;;;;16.50;16.00;;;;;;;;6487043;31;8958;-60
2023/09/20 14:17:47;;;;;;;;;10.75;10.75;;;;;;;;6488616;31;9589;-59
2023/09/20 14:23:50;;;;;;;;;14.50;14.25;;;;;;;;6488381;39;9034;-61
2023/09/20 14:29:52;;;;;;;;;13.25;13.25;;;;;;;;6488486;31;8916;-60
2023/09/20 14:35:58;;;;;;;;;12.50;12.00;;;;;;;;6487991;39;8904;-59
2023/09/20 14:42:02;;;;;;;;;9.25;9.25;;;;;;;;6488073;39;9117;-59
2023/09/20 14:48:06;;;;;;;;;11.00;11.00;;;;;;;;6487578;39;8900;-59
2023/09/20 14:54:08;;;;;;;;;12.00;10.25;;;;;;;;6487971;39;9021;-59
2023/09/20 15:00:18;;;;;;;;;11.50;11.00;;;;;;;;6487551;39;8954;-60
2023/09/20 15:06:22;;;;;;;;;14.75;13.00;;;;;;;;6488076;39;8901;-59
2023/09/20 15:12:26;;;;;;;;;13.00;11.25;;;;;;;;6489255;36;256414;-59
2023/09/20 15:18:29;;;;;;;;;13.50;13.00;;;;;;;;6488127;39;9026;-60
2023/09/20 15:24:33;;;;;;;;;11.00;11.00;;;;;;;;6487761;39;9513;-58
2023/09/20 15:30:37;;;;;;;;;12.75;12.75;;;;;;;;6487936;47;8967;-58
2023/09/20 15:36:39;;;;;;;;;11.00;9.00;;;;;;;;6487006;47;8904;-58
2023/09/20 15:42:44;;;;;;;;;9.50;9.00;;;;;;;;6486549;31;8866;-59
2023/09/20 15:48:50;;;;;;;;;11.25;11.25;;;;;;;;6487437;39;8884;-59
2023/09/20 15:54:54;;;;;;;;;11.25;11.25;;;;;;;;6487474;39;9009;-60
2023/09/20 16:00:56;;;;;;;;;13.25;13.25;;;;;;;;6488195;31;8970;-58
2023/09/20 16:06:59;;;;;;;;;14.50;14.25;;;;;;;;6487647;31;8894;-59
2023/09/20 16:13:01;;;;;;;;;14.75;14.25;;;;;;;;6486792;47;8845;-58
2023/09/20 16:19:04;;;;;;;;;11.75;10.50;;;;;;;;6487035;39;8902;-58
2023/09/20 16:25:07;;;;;;;;;14.75;14.75;;;;;;;;6487076;39;8907;-59
2023/09/20 16:31:09;;;;;;;;;17.25;16.75;;;;;;;;6487384;39;8981;-59
2023/09/20 16:37:12;;;;;;;;;14.50;14.50;;;;;;;;6488023;39;8864;-61
2023/09/20 16:43:15;;;;;;;;;18.00;18.00;;;;;;;;6489758;39;8872;-57
2023/09/20 16:49:18;;;;;;;;;19.00;16.75;;;;;;;;6488881;39;9544;-59
2023/09/20 16:55:21;;;;;;;;;22.00;16.25;;;;;;;;6488465;46;8965;-56
2023/09/20 17:01:24;;;;;;;;;21.00;19.25;;;;;;;;6488869;46;8884;-58
2023/09/20 17:07:27;;;;;;;;;24.75;22.25;;;;;;;;6489636;39;8858;-59
2023/09/20 17:13:31;;;;;;;;;17.00;13.75;;;;;;;;6488466;39;8883;-60
2023/09/20 17:19:34;;;;;;;;;15.00;14.00;;;;;;;;6490231;39;9462;-60
2023/09/20 17:25:36;;;;;;;;;26.00;22.00;;;;;;;;6490195;31;9595;-58
2023/09/20 17:31:39;;;;;;;;;20.67;18.67;;;;;;;;6488295;31;8894;-58
2023/09/20 17:37:41;;;;;;;;;21.00;17.00;;;;;;;;6488877;46;8934;-56
2023/09/20 17:43:44;;;;;;;;;22.00;20.00;;;;;;;;6489398;39;8882;-60
2023/09/20 17:49:46;;;;;;;;;19.75;18.75;;;;;;;;6489554;39;9019;-58
2023/09/20 17:55:51;;;;;;;;;20.33;18.00;;;;;;;;6489720;31;8977;-59
2023/09/20 18:01:53;;;;;;;;;23.67;22.67;;;;;;;;6489209;39;8881;-58
2023/09/20 18:07:55;;;;;;;;;21.67;20.33;;;;;;;;6487881;31;9047;-59
2023/09/20 18:13:59;;;;;;;;;22.33;21.33;;;;;;;;6490217;31;8857;-59
2023/09/20 18:20:03;;;;;;;;;24.00;24.00;;;;;;;;6489393;39;8909;-60
2023/09/20 18:26:12;;;;;;;;;25.50;23.50;;;;;;;;6489188;31;8955;-59
2023/09/20 18:32:14;;;;;;;;;24.00;23.00;;;;;;;;6488816;39;8886;-59
2023/09/20 18:38:17;;;;;;;;;27.67;24.33;;;;;;;;6488540;31;8908;-58
2023/09/20 18:44:20;;;;;;;;;24.00;23.00;;;;;;;;6488726;39;9028;-58
2023/09/20 18:50:25;;;;;;;;;25.67;25.33;;;;;;;;6488285;39;8902;-58
2023/09/20 18:56:28;;;;;;;;;30.33;29.00;;;;;;;;6488007;31;8938;-59
2023/09/20 19:02:30;;;;;;;;;27.33;24.00;;;;;;;;6487097;46;8907;-57
2023/09/20 19:08:33;;;;;;;;;23.00;21.67;;;;;;;;6488428;31;8883;-56
2023/09/20 19:14:35;;;;;;;;;30.33;25.33;;;;;;;;6488051;47;8872;-58
2023/09/20 19:20:38;;;;;;;;;25.00;24.00;;;;;;;;6488794;39;9458;-59
2023/09/20 19:26:40;;;;;;;;;27.33;26.00;;;;;;;;6487756;39;8849;-58
2023/09/20 19:32:44;;;;;;;;;27.67;25.00;;;;;;;;6487981;39;9458;-57
2023/09/20 19:38:52;;;;;;;;;28.67;27.67;;;;;;;;6489273;39;9555;-57
2023/09/20 19:44:56;;;;;;;;;26.00;25.33;;;;;;;;6487516;46;8835;-58
2023/09/20 19:51:00;;;;;;;;;27.67;27.33;;;;;;;;6487219;39;9464;-58
2023/09/20 19:57:02;;;;;;;;;28.67;27.33;;;;;;;;6486933;39;9690;-57
2023/09/20 20:03:08;;;;;;;;;28.00;25.33;;;;;;;;6489107;31;8852;-58
2023/09/20 20:09:15;;;;;;;;;30.67;26.67;;;;;;;;6491121;39;8831;-56
2023/09/20 20:15:22;;;;;;;;;29.33;28.33;;;;;;;;6490091;39;8920;-58
2023/09/20 20:21:24;;;;;;;;;27.67;25.00;;;;;;;;6489923;46;8839;-59
2023/09/20 20:27:30;;;;;;;;;26.00;24.67;;;;;;;;6490848;39;9535;-59
2023/09/20 20:33:34;;;;;;;;;30.00;26.67;;;;;;;;6489024;46;8866;-57
2023/09/20 20:39:36;;;;;;;;;33.00;30.67;;;;;;;;6490187;39;8912;-58
2023/09/20 20:45:39;;;;;;;;;30.00;26.33;;;;;;;;6487699;39;8929;-59
2023/09/20 20:51:43;;;;;;;;;29.67;29.00;;;;;;;;6489404;39;9585;-58
2023/09/20 20:57:50;;;;;;;;;27.67;25.00;;;;;;;;6489499;31;8996;-58
2023/09/20 21:03:54;;;;;;;;;33.33;30.00;;;;;;;;6488958;39;8892;-56
2023/09/20 21:09:56;;;;;;;;;31.33;29.33;;;;;;;;6489169;31;9479;-58
2023/09/20 21:16:03;;;;;;;;;25.00;23.67;;;;;;;;6487936;39;9524;-57
2023/09/20 21:22:06;;;;;;;;;29.67;27.33;;;;;;;;6489318;39;8858;-58
2023/09/20 21:28:08;;;;;;;;;23.33;22.00;;;;;;;;6487904;39;8864;-57
2023/09/20 21:34:10;;;;;;;;;25.00;24.33;;;;;;;;6488678;46;8987;-57
2023/09/20 21:40:18;;;;;;;;;28.67;28.67;;;;;;;;6489806;39;8876;-59
2023/09/20 21:46:20;;;;;;;;;26.67;26.00;;;;;;;;6486857;31;9094;-58
2023/09/20 21:52:25;;;;;;;;;32.00;29.00;;;;;;;;6489002;39;8864;-58
2023/09/20 21:58:27;;;;;;;;;32.33;31.00;;;;;;;;6489513;39;8957;-56
2023/09/20 22:04:29;;;;;;;;;28.67;27.33;;;;;;;;6489396;39;8987;-59
2023/09/20 22:10:44;;;;;;;;;31.33;30.00;;;;;;;;6489388;39;8830;-57
2023/09/20 22:16:48;;;;;;;;;25.33;24.00;;;;;;;;6487927;39;9496;-57
2023/09/20 22:22:53;;;;;;;;;27.67;25.00;;;;;;;;6488539;39;8928;-57
2023/09/20 22:28:56;;;;;;;;;30.67;29.67;;;;;;;;6488932;39;8883;-56
2023/09/20 22:34:58;;;;;;;;;28.33;25.33;;;;;;;;6489259;39;8865;-56
2023/09/20 22:41:01;;;;;;;;;31.33;27.00;;;;;;;;6489238;31;8859;-57
2023/09/20 22:47:03;;;;;;;;;28.67;26.67;;;;;;;;6488936;39;9007;-58
2023/09/20 22:53:08;;;;;;;;;27.00;27.00;;;;;;;;6489025;39;8969;-57
2023/09/20 22:59:13;;;;;;;;;28.67;27.67;;;;;;;;6488146;46;8929;-56
2023/09/20 23:05:18;;;;;;;;;25.33;24.67;;;;;;;;6488325;39;9042;-57
2023/09/20 23:11:27;;;;;;;;;30.67;27.33;;;;;;;;6488422;46;8865;-56
2023/09/20 23:17:31;;;;;;;;;29.00;26.00;;;;;;;;6487954;39;8966;-59
2023/09/20 23:23:33;;;;;;;;;26.67;25.33;;;;;;;;6488774;31;8880;-56
2023/09/20 23:29:35;;;;;;;;;30.00;28.33;;;;;;;;6488664;31;9014;-58
2023/09/20 23:35:57;;;;;;;;;29.33;26.67;;;;;;;;6488627;39;8853;-59
2023/09/20 23:41:59;;;;;;;;;31.67;27.67;;;;;;;;6490231;31;8891;-59
2023/09/20 23:48:08;;;;;;;;;32.00;30.67;;;;;;;;6489889;31;8995;-58
2023/09/20 23:54:10;;;;;;;;;32.33;27.33;;;;;;;;6491016;31;8936;-57
